Time;durP1;ratioP1;P1;durP2;ratioP2;P2;SDS_P1;SDS_P2;PMS_P1;PMS_P2;Temp;Humidity;BMP_temperature;BMP_pressure;BME280_temperature;BME280_humidity;BME280_pressure;Samples;Min_cycle;Max_cycle;Signal;HPM_P1;HPM_P2
2022/11/25 00:01:29;;;;;;;6.53;2.15;;;2.30;99.90;;;2.44;100.00;100031.75;5020927;28;20231;-77
2022/11/25 00:03:58;;;;;;;9.30;3.03;;;2.50;99.90;;;2.49;100.00;100017.13;5019314;28;20708;-77
2022/11/25 00:06:35;;;;;;;9.55;3.17;;;2.70;99.90;;;2.52;100.00;100017.25;5005959;28;20292;-77
2022/11/25 00:09:09;;;;;;;8.63;2.85;;;2.60;99.90;;;2.45;100.00;100020.47;5028984;28;20250;-77
2022/11/25 00:11:39;;;;;;;6.50;2.28;;;2.60;99.90;;;2.45;100.00;100013.53;5002759;28;20270;-77
2022/11/25 00:14:13;;;;;;;8.77;2.92;;;2.60;99.90;;;2.35;100.00;100008.84;5022550;28;20280;-77
2022/11/25 00:16:40;;;;;;;9.00;3.05;;;2.50;99.90;;;2.36;100.00;100005.38;5024444;28;20302;-77
2022/11/25 00:19:14;;;;;;;7.85;2.67;;;2.60;99.90;;;2.35;100.00;100002.72;5027377;28;20322;-77
2022/11/25 00:21:41;;;;;;;6.75;2.40;;;2.60;99.90;;;2.25;100.00;99999.81;5027600;28;20242;-77
2022/11/25 00:24:09;;;;;;;10.32;3.42;;;2.40;99.90;;;2.08;100.00;99994.81;5027415;28;20302;-77
2022/11/25 00:26:36;;;;;;;6.28;2.22;;;2.30;99.90;;;2.17;100.00;100003.84;5010583;28;20680;-79
2022/11/25 00:29:06;;;;;;;14.27;4.80;;;2.30;99.90;;;2.18;100.00;100000.41;5031715;28;20237;-78
2022/11/25 00:31:36;;;;;;;8.82;3.08;;;2.40;99.90;;;2.30;100.00;100005.19;5024353;28;20670;-77
2022/11/25 00:34:03;;;;;;;6.85;2.58;;;2.50;99.90;;;2.20;100.00;100001.34;5024677;28;20237;-77
2022/11/25 00:36:34;;;;;;;6.60;2.53;;;2.40;99.90;;;2.19;100.00;99989.16;5007452;28;20714;-77
2022/11/25 00:39:10;;;;;;;7.35;2.60;;;2.30;99.90;;;2.20;100.00;99993.53;5022914;28;20746;-77
2022/11/25 00:44:35;;;;;;;7.40;2.45;;;2.80;99.90;;;2.03;100.00;99980.72;5028152;28;20250;-77
2022/11/25 00:47:16;;;;;;;8.77;2.92;;;2.30;99.90;;;2.12;100.00;99994.09;5019705;28;20226;-77
2022/11/25 00:49:46;;;;;;;8.05;2.75;;;2.20;99.90;;;2.11;100.00;99993.22;5007718;28;20277;-77
2022/11/25 00:52:19;;;;;;;8.20;2.78;;;2.20;99.90;;;1.98;100.00;99985.78;5026649;28;20254;-77
2022/11/25 00:54:47;;;;;;;8.25;2.80;;;2.20;99.90;;;1.95;100.00;99992.59;5027189;28;20302;-77
2022/11/25 00:57:17;;;;;;;9.18;3.10;;;2.50;99.90;;;1.97;100.00;99994.44;5021889;28;20232;-77
2022/11/25 00:59:44;;;;;;;6.82;2.42;;;2.20;99.90;;;2.11;100.00;99997.53;5021446;28;20306;-77
2022/11/25 01:02:12;;;;;;;6.35;2.40;;;2.20;99.90;;;2.23;100.00;99995.38;5023187;28;20770;-77
2022/11/25 01:04:40;;;;;;;8.50;3.00;;;2.40;99.90;;;2.28;100.00;99998.13;5012123;28;20717;-77
2022/11/25 01:07:07;;;;;;;7.03;3.05;;;3.00;99.90;;;2.31;100.00;100001.72;5010637;28;20223;-77
2022/11/25 01:09:34;;;;;;;8.68;3.03;;;2.40;99.90;;;2.35;100.00;100007.94;5025774;28;20228;-77
2022/11/25 01:12:01;;;;;;;6.43;2.30;;;2.50;99.90;;;2.36;100.00;100009.72;5022377;28;20254;-77
2022/11/25 01:14:28;;;;;;;6.70;2.47;;;2.50;99.90;;;2.44;100.00;100026.53;5028575;28;20227;-77
2022/11/25 01:16:55;;;;;;;7.28;2.65;;;2.50;99.90;;;2.45;100.00;100021.38;5018636;28;20231;-77
2022/11/25 01:19:22;;;;;;;6.05;2.15;;;2.50;99.90;;;2.49;100.00;100027.56;5000087;28;20239;-77
2022/11/25 01:21:49;;;;;;;6.22;2.30;;;2.60;99.90;;;2.48;100.00;100026.69;5025348;28;20261;-77
2022/11/25 01:24:17;;;;;;;5.90;2.50;;;2.60;99.90;;;2.57;100.00;100034.84;5020447;28;20291;-77
2022/11/25 01:26:44;;;;;;;5.50;2.30;;;2.70;99.90;;;2.62;100.00;100029.81;5028964;28;20227;-77
2022/11/25 01:29:17;;;;;;;5.28;2.30;;;2.70;99.90;;;2.62;100.00;100032.41;5021030;28;20251;-78
2022/11/25 01:31:45;;;;;;;8.20;2.75;;;2.80;99.90;;;2.58;100.00;100028.78;5018371;28;20668;-78
2022/11/25 01:34:20;;;;;;;7.85;2.78;;;2.70;99.90;;;2.58;100.00;100030.50;5024309;28;20262;-77
2022/11/25 01:36:48;;;;;;;1.85;1.35;;;2.70;99.90;;;2.58;100.00;100026.16;5024240;28;20229;-77
2022/11/25 01:39:23;;;;;;;2.30;2.10;;;2.80;99.90;;;2.64;100.00;100027.25;5017617;28;20255;-77
2022/11/25 01:41:59;;;;;;;7.53;2.72;;;2.80;99.90;;;2.59;100.00;100027.06;5022038;28;20254;-78
2022/11/25 01:44:30;;;;;;;6.63;2.38;;;2.80;99.90;;;2.63;100.00;100028.97;5017223;28;20311;-77
2022/11/25 01:47:22;;;;;;;8.02;2.72;;;2.70;99.90;;;2.65;100.00;100029.91;5027585;28;20254;-77
2022/11/25 01:50:02;;;;;;;7.65;2.58;;;2.80;99.90;;;2.67;100.00;100030.84;5025352;28;20252;-78
2022/11/25 01:52:40;;;;;;;7.65;3.05;;;2.80;99.90;;;2.72;100.00;100038.84;5025681;28;20309;-78
2022/11/25 01:55:12;;;;;;;6.22;2.35;;;2.80;99.90;;;2.71;100.00;100035.34;5021626;28;20748;-78
2022/11/25 01:57:54;;;;;;;7.72;3.38;;;2.80;99.90;;;2.70;100.00;100032.69;5003944;28;20295;-78
2022/11/25 02:00:21;;;;;;;8.93;3.25;;;2.90;99.90;;;2.71;100.00;100047.50;5009026;28;20227;-78
2022/11/25 02:02:52;;;;;;;6.80;2.38;;;2.90;99.90;;;2.69;100.00;100046.56;5006146;28;20314;-78
2022/11/25 02:05:26;;;;;;;7.38;2.72;;;2.90;99.90;;;2.70;100.00;100044.00;5024076;28;20376;-78
2022/11/25 02:07:59;;;;;;;8.85;3.25;;;2.90;99.90;;;2.77;100.00;100050.31;5003340;28;20314;-78
2022/11/25 02:10:29;;;;;;;6.55;2.33;;;2.90;99.90;;;2.72;100.00;100042.34;4996633;28;20241;-78
2022/11/25 02:12:57;;;;;;;7.18;2.55;;;2.80;99.90;;;2.74;100.00;100048.50;4998657;28;20361;-78
2022/11/25 02:15:25;;;;;;;6.60;2.42;;;2.90;99.90;;;2.75;100.00;100052.88;5003685;28;20321;-78
2022/11/25 02:17:52;;;;;;;6.10;2.30;;;2.90;99.90;;;2.75;100.00;100037.22;5000802;28;20310;-78
2022/11/25 02:20:21;;;;;;;6.22;2.60;;;2.90;99.90;;;2.79;100.00;100039.09;5006614;28;20369;-78
2022/11/25 02:23:13;;;;;;;5.88;2.47;;;2.90;99.90;;;2.76;100.00;100032.88;5004155;28;20309;-78
2022/11/25 02:25:42;;;;;;;4.85;2.08;;;2.90;99.90;;;2.75;100.00;100034.59;5014324;28;20311;-80
2022/11/25 02:28:21;;;;;;;5.18;2.08;;;3.10;99.90;;;2.76;100.00;100036.38;5008080;28;20237;-80
2022/11/25 02:30:48;;;;;;;5.88;2.53;;;2.90;99.90;;;2.76;100.00;100038.09;4998177;28;20258;-79
2022/11/25 02:33:16;;;;;;;3.58;1.88;;;2.90;99.90;;;2.78;100.00;100044.25;5026298;28;20258;-78
2022/11/25 02:35:47;;;;;;;5.80;2.25;;;2.90;99.90;;;2.78;100.00;100042.53;5023315;28;20269;-78
2022/11/25 02:38:33;;;;;;;7.13;2.58;;;2.90;99.90;;;2.79;100.00;100036.50;5004832;28;20243;-78
2022/11/25 02:41:24;;;;;;;7.05;2.60;;;2.90;99.90;;;2.75;100.00;100037.22;5019849;28;20329;-78
2022/11/25 02:43:51;;;;;;;7.80;2.97;;;3.00;99.90;;;2.74;100.00;100034.56;5008484;28;20316;-78
2022/11/25 02:46:23;;;;;;;6.97;2.58;;;2.80;99.90;;;2.72;100.00;100028.41;5009836;28;20228;-78
2022/11/25 02:48:53;;;;;;;8.65;3.08;;;2.90;99.90;;;2.71;100.00;100029.22;5003078;28;20251;-78
2022/11/25 02:51:36;;;;;;;6.03;2.25;;;2.90;99.90;;;2.67;100.00;100028.25;5022234;28;20281;-78
2022/11/25 02:54:03;;;;;;;6.85;2.58;;;2.80;99.90;;;2.74;100.00;100032.84;5027463;28;20231;-77
2022/11/25 02:56:35;;;;;;;7.18;2.53;;;3.00;99.90;;;2.75;100.00;100026.78;5026450;28;20235;-77
2022/11/25 02:59:03;;;;;;;5.50;2.53;;;2.90;99.90;;;2.79;100.00;100030.38;5021804;28;20255;-77
2022/11/25 03:01:30;;;;;;;5.90;2.28;;;3.00;99.90;;;2.79;100.00;100033.88;5024083;28;20785;-78
2022/11/25 03:03:58;;;;;;;6.35;2.35;;;2.90;99.90;;;2.85;100.00;100038.41;5027219;28;20277;-79
2022/11/25 03:06:26;;;;;;;7.50;2.65;;;3.00;99.90;;;2.88;100.00;100047.25;5027771;28;20261;-78
2022/11/25 03:08:53;;;;;;;11.18;3.83;;;3.20;99.90;;;2.91;100.00;100045.56;5026797;28;20331;-78
2022/11/25 03:12:17;;;;;;;9.48;3.25;;;3.10;99.90;;;2.95;100.00;100056.16;5025850;28;20281;-78
2022/11/25 03:14:07;;;;;;;6.88;2.38;;;3.20;99.90;;;2.96;100.00;100055.31;5008509;28;20227;-78
2022/11/25 03:16:34;;;;;;;7.00;2.40;;;3.10;99.90;;;3.01;100.00;100055.47;5030654;28;20250;-78
2022/11/25 03:19:02;;;;;;;6.85;2.45;;;3.10;99.90;;;3.01;100.00;100050.25;5028920;28;20298;-78
2022/11/25 03:21:29;;;;;;;7.82;2.75;;;3.30;99.90;;;3.05;100.00;100050.41;5030934;28;20369;-78
2022/11/25 03:23:56;;;;;;;7.30;2.50;;;3.30;99.90;;;3.08;100.00;100047.91;5025082;28;20315;-78
2022/11/25 03:26:24;;;;;;;7.05;2.53;;;3.30;99.90;;;3.08;100.00;100039.16;5024762;28;20247;-78
2022/11/25 03:28:51;;;;;;;12.88;4.00;;;3.20;99.90;;;3.11;100.00;100037.53;5026001;28;20699;-78
2022/11/25 03:31:19;;;;;;;7.65;2.60;;;3.10;99.90;;;3.10;100.00;100046.22;5004311;28;20291;-78
2022/11/25 03:33:46;;;;;;;8.07;2.75;;;3.30;99.90;;;3.11;100.00;100040.16;5026180;28;20232;-78
2022/11/25 03:36:13;;;;;;;6.78;2.55;;;3.20;99.90;;;3.13;100.00;100035.88;5032441;28;20227;-78
2022/11/25 03:38:40;;;;;;;9.90;3.33;;;3.50;99.90;;;3.14;100.00;100040.25;5022533;28;20373;-78
2022/11/25 03:41:07;;;;;;;7.97;2.88;;;3.30;99.90;;;3.17;100.00;100034.25;5030728;28;20254;-77
2022/11/25 03:43:34;;;;;;;6.60;2.30;;;3.30;99.90;;;3.17;100.00;100037.75;5020137;28;20306;-78
2022/11/25 03:46:01;;;;;;;6.68;2.78;;;3.30;99.90;;;3.24;100.00;100056.22;5027767;28;20250;-78
2022/11/25 03:48:28;;;;;;;9.25;3.15;;;3.50;99.90;;;3.25;100.00;100047.53;5025297;28;20233;-78
2022/11/25 03:50:55;;;;;;;8.02;2.75;;;3.30;99.90;;;3.28;100.00;100039.81;5025331;28;20238;-78
2022/11/25 03:53:22;;;;;;;7.93;2.70;;;3.40;99.90;;;3.27;100.00;100054.59;5027120;28;20239;-79
2022/11/25 03:55:49;;;;;;;6.13;2.08;;;3.50;99.90;;;3.33;100.00;100056.53;5025033;28;20227;-78
2022/11/25 03:58:16;;;;;;;7.15;2.42;;;3.50;99.90;;;3.36;100.00;100064.47;5024957;28;20309;-78
2022/11/25 04:00:43;;;;;;;9.15;3.15;;;3.70;99.90;;;3.41;100.00;100062.88;5010228;28;20254;-78
2022/11/25 04:03:10;;;;;;;5.63;2.05;;;3.50;99.90;;;3.45;100.00;100072.59;5004663;28;20315;-78
2022/11/25 04:05:37;;;;;;;9.52;3.10;;;3.80;99.90;;;3.49;100.00;100077.06;5026455;28;20310;-78
2022/11/25 04:08:05;;;;;;;8.90;3.10;;;3.60;99.90;;;3.49;100.00;100074.47;5022798;28;20240;-78
2022/11/25 04:10:32;;;;;;;7.85;2.83;;;3.60;99.90;;;3.53;100.00;100076.31;5024878;28;20233;-78
2022/11/25 04:12:59;;;;;;;8.82;3.03;;;3.70;99.90;;;3.52;100.00;100077.16;5009510;28;20227;-78
2022/11/25 04:15:26;;;;;;;8.18;2.83;;;3.60;99.90;;;3.52;100.00;100085.91;5023616;28;20330;-78
2022/11/25 04:17:53;;;;;;;9.75;3.33;;;3.70;99.90;;;3.53;100.00;100085.06;5025403;28;20299;-78
2022/11/25 04:20:20;;;;;;;8.98;2.97;;;3.60;99.90;;;3.56;100.00;100086.88;5030708;28;20254;-78
2022/11/25 04:22:47;;;;;;;7.50;2.60;;;3.70;99.90;;;3.58;100.00;100081.69;5028773;28;20274;-78
2022/11/25 04:25:15;;;;;;;8.80;2.88;;;3.70;99.90;;;3.59;100.00;100076.53;5029908;28;20310;-79
2022/11/25 04:27:42;;;;;;;8.02;2.67;;;3.70;99.90;;;3.58;100.00;100073.84;5019835;28;20289;-78
2022/11/25 04:30:09;;;;;;;8.75;2.88;;;3.70;99.90;;;3.56;100.00;100065.97;5021857;28;20267;-78
2022/11/25 04:32:37;;;;;;;8.27;2.92;;;3.70;99.90;;;3.54;100.00;100051.97;5030167;28;20354;-79
2022/11/25 04:35:05;;;;;;;7.47;2.70;;;3.60;99.90;;;3.48;100.00;100044.81;5012398;28;20311;-78
2022/11/25 04:37:32;;;;;;;7.88;3.10;;;3.60;99.90;;;3.37;100.00;100043.59;5030409;28;20307;-78
2022/11/25 04:39:59;;;;;;;8.85;3.42;;;3.60;99.90;;;3.28;100.00;100050.25;5029330;28;20329;-79
2022/11/25 04:42:32;;;;;;;3.35;2.13;;;3.50;99.90;;;3.32;100.00;100065.19;5028954;28;20255;-79
2022/11/25 04:45:02;;;;;;;8.88;2.83;;;3.60;99.90;;;3.37;100.00;100068.84;5018300;28;20288;-79
2022/11/25 04:47:49;;;;;;;10.38;3.30;;;3.50;99.90;;;3.34;100.00;100063.53;5029677;28;20234;-78
2022/11/25 04:50:20;;;;;;;7.97;2.78;;;3.60;99.90;;;3.24;100.00;100064.94;5004799;28;20227;-79
2022/11/25 04:52:47;;;;;;;8.30;2.80;;;3.40;99.90;;;3.17;100.00;100068.22;5023710;28;20327;-79
2022/11/25 04:55:15;;;;;;;7.28;2.47;;;3.30;99.90;;;3.11;100.00;100075.84;5012584;28;20227;-79
2022/11/25 04:57:42;;;;;;;6.13;2.30;;;3.30;99.90;;;3.07;100.00;100073.97;5026915;28;20255;-78
2022/11/25 05:00:10;;;;;;;8.77;3.15;;;3.40;99.90;;;3.03;100.00;100074.69;5013006;28;20318;-78
2022/11/25 05:06:11;;;;;;;3.40;2.13;;;3.10;99.90;;;2.83;100.00;100081.88;4965263;28;20243;-79
2022/11/25 05:08:38;;;;;;;8.10;3.13;;;3.00;99.90;;;2.87;100.00;100081.13;5009729;28;20692;-80
2022/11/25 05:11:05;;;;;;;2.78;2.42;;;3.30;99.90;;;2.89;100.00;100082.97;5002702;28;20286;-80
2022/11/25 05:13:32;;;;;;;6.78;2.80;;;3.00;99.90;;;2.89;100.00;100089.91;5008313;28;20232;-80
2022/11/25 05:15:59;;;;;;;7.03;2.53;;;3.00;99.90;;;3.00;100.00;100105.94;5010486;28;20271;-78
2022/11/25 05:18:26;;;;;;;10.13;3.45;;;3.10;99.90;;;3.05;100.00;100107.00;5007177;28;20247;-80
2022/11/25 05:20:53;;;;;;;2.17;1.45;;;3.30;99.90;;;3.07;100.00;100121.00;5003234;28;20259;-78
2022/11/25 05:23:20;;;;;;;5.95;2.40;;;3.40;99.90;;;3.06;100.00;100127.94;5000740;28;20229;-78
2022/11/25 05:25:47;;;;;;;10.63;3.88;;;3.20;99.90;;;3.06;100.00;100122.72;5004638;28;20318;-79
2022/11/25 05:28:14;;;;;;;8.32;3.05;;;3.20;99.90;;;3.12;100.00;100130.75;5010426;28;20318;-79
2022/11/25 05:30:44;;;;;;;5.57;2.17;;;3.30;99.90;;;3.14;100.00;100136.94;4989722;28;20323;-78
2022/11/25 05:33:11;;;;;;;6.18;2.30;;;3.30;99.90;;;3.17;100.00;100141.38;5003042;28;20236;-79
2022/11/25 05:35:38;;;;;;;9.07;3.15;;;3.50;99.90;;;3.15;100.00;100143.94;4998255;28;20314;-79
2022/11/25 05:38:05;;;;;;;7.60;2.60;;;3.30;99.90;;;3.13;100.00;100148.22;4991854;28;20230;-80
2022/11/25 05:40:32;;;;;;;9.52;3.17;;;3.20;99.90;;;3.12;100.00;100145.53;5001961;28;20303;-79
2022/11/25 05:43:00;;;;;;;7.00;2.35;;;3.20;99.90;;;3.11;100.00;100149.88;5006586;28;20271;-77
2022/11/25 05:45:27;;;;;;;6.88;2.33;;;3.30;99.90;;;3.12;100.00;100154.28;5008065;28;20251;-77
2022/11/25 05:47:54;;;;;;;1.67;1.30;;;3.20;99.90;;;3.16;100.00;100157.88;4991845;28;20231;-79
2022/11/25 05:50:21;;;;;;;1.45;1.27;;;3.30;99.90;;;3.14;100.00;100157.81;5008236;28;20318;-79
2022/11/25 05:52:48;;;;;;;5.45;2.10;;;3.30;99.90;;;3.17;100.00;100173.59;5000408;28;20231;-79
2022/11/25 05:55:16;;;;;;;6.68;2.40;;;3.30;99.90;;;3.20;100.00;100168.47;4985505;28;20251;-81
2022/11/25 05:57:43;;;;;;;7.13;2.47;;;3.30;99.90;;;3.21;100.00;100172.88;5007472;28;20664;-79
2022/11/25 06:00:10;;;;;;;6.53;2.25;;;3.40;99.90;;;3.25;100.00;100184.31;5005004;28;20240;-80
2022/11/25 06:02:37;;;;;;;6.53;2.20;;;3.40;99.90;;;3.30;100.00;100193.19;4998527;28;20637;-80
2022/11/25 06:05:05;;;;;;;7.82;2.70;;;3.50;99.90;;;3.35;100.00;100193.38;5000982;28;20233;-79
2022/11/25 06:07:32;;;;;;;8.30;2.88;;;3.40;99.90;;;3.40;100.00;100194.41;5003107;28;20227;-80
2022/11/25 06:09:59;;;;;;;7.22;2.55;;;3.50;99.90;;;3.41;100.00;100194.47;5009917;28;20286;-80
2022/11/25 06:12:29;;;;;;;6.32;2.38;;;3.60;99.90;;;3.45;100.00;100192.84;5006286;28;20236;-80
2022/11/25 06:14:56;;;;;;;6.38;2.35;;;3.70;99.90;;;3.46;100.00;100198.13;5001454;28;20668;-81
2022/11/25 06:17:23;;;;;;;7.80;2.85;;;4.40;99.90;;;3.50;100.00;100213.06;5002162;28;20228;-81
2022/11/25 06:19:50;;;;;;;6.78;2.50;;;3.60;99.90;;;3.52;100.00;100221.84;4995669;28;20228;-80
2022/11/25 06:22:17;;;;;;;7.68;2.72;;;3.80;99.90;;;3.56;100.00;100229.78;5004415;28;20315;-79
2022/11/25 06:24:44;;;;;;;7.97;2.88;;;3.70;99.90;;;3.58;100.00;100233.34;5005059;28;20252;-79
2022/11/25 06:27:22;;;;;;;7.28;2.88;;;3.90;99.90;;;3.62;100.00;100243.06;4988411;28;20285;-79
2022/11/25 06:29:49;;;;;;;6.85;2.53;;;3.70;99.90;;;3.66;100.00;100251.06;4999793;28;20328;-79
2022/11/25 06:32:16;;;;;;;6.32;2.30;;;3.90;99.90;;;3.66;100.00;100240.59;4990809;28;20229;-80
2022/11/25 06:34:43;;;;;;;7.55;2.78;;;3.80;99.90;;;3.69;100.00;100243.31;5004375;28;20227;-80
2022/11/25 06:37:10;;;;;;;7.50;2.78;;;3.80;99.90;;;3.69;100.00;100245.06;4999556;28;20239;-80
2022/11/25 06:39:37;;;;;;;5.32;2.05;;;4.50;99.90;;;3.69;100.00;100250.28;5003089;28;20247;-80
2022/11/25 06:42:04;;;;;;;6.32;2.30;;;3.80;99.90;;;3.71;100.00;100257.34;4976855;28;20412;-79
2022/11/25 06:44:31;;;;;;;6.90;2.47;;;3.80;99.90;;;3.74;100.00;100257.44;5007033;28;20235;-80
2022/11/25 06:46:58;;;;;;;7.10;2.65;;;3.90;99.90;;;3.75;100.00;100263.56;5004403;28;20305;-80
2022/11/25 06:49:27;;;;;;;9.07;3.28;;;3.90;99.90;;;3.76;100.00;100281.03;5002664;28;20330;-80
2022/11/25 06:51:54;;;;;;;7.05;2.50;;;3.90;99.90;;;3.78;100.00;100284.59;5008844;28;20244;-79
2022/11/25 06:54:21;;;;;;;6.82;2.42;;;3.90;99.90;;;3.78;100.00;100285.47;4987688;28;20306;-80
2022/11/25 06:56:52;;;;;;;7.78;2.70;;;4.00;99.90;;;3.79;100.00;100284.63;5003488;28;20235;-79
2022/11/25 06:59:20;;;;;;;6.90;2.47;;;3.90;99.90;;;3.78;100.00;100277.63;5006570;28;20223;-79
2022/11/25 07:01:47;;;;;;;6.95;2.40;;;4.00;99.90;;;3.82;100.00;100284.75;5004116;28;20235;-80
2022/11/25 07:04:14;;;;;;;7.53;3.15;;;4.00;99.90;;;3.81;100.00;100297.78;5007827;28;20705;-79
2022/11/25 07:06:41;;;;;;;6.20;2.28;;;3.90;99.90;;;3.81;100.00;100290.81;5006531;28;20324;-79
2022/11/25 07:09:08;;;;;;;6.63;2.50;;;4.00;99.90;;;3.80;100.00;100290.75;5000503;28;20315;-79
2022/11/25 07:11:39;;;;;;;6.30;2.25;;;3.90;99.90;;;3.80;100.00;100291.66;4997232;28;20228;-79
2022/11/25 07:14:11;;;;;;;5.63;1.98;;;4.00;99.90;;;3.83;100.00;100302.22;4991157;28;20251;-79
2022/11/25 07:16:41;;;;;;;6.18;2.40;;;3.90;99.90;;;3.86;100.00;100298.81;4992356;28;20256;-79
2022/11/25 07:19:13;;;;;;;7.45;2.53;;;4.20;99.90;;;3.88;100.00;100317.19;4991923;28;20228;-79
2022/11/25 07:21:43;;;;;;;5.78;2.13;;;4.00;99.90;;;3.91;100.00;100323.44;4991038;28;20232;-78
2022/11/25 07:24:13;;;;;;;7.05;2.60;;;4.00;99.90;;;3.95;100.00;100322.69;4990931;28;20224;-78
2022/11/25 07:26:42;;;;;;;6.70;2.47;;;4.10;99.90;;;4.00;100.00;100330.72;4994210;28;20282;-79
2022/11/25 07:29:14;;;;;;;6.32;2.22;;;4.10;99.90;;;4.03;100.00;100325.56;4990293;28;20236;-79
2022/11/25 07:32:02;;;;;;;4.55;1.85;;;4.10;99.90;;;4.03;100.00;100328.19;4993876;28;20242;-78
2022/11/25 07:34:36;;;;;;;7.85;2.70;;;4.10;99.90;;;4.07;100.00;100335.31;4980585;28;20319;-79
2022/11/25 07:37:03;;;;;;;4.65;2.10;;;4.20;99.90;;;4.07;100.00;100336.19;4990675;28;20283;-79
2022/11/25 07:39:30;;;;;;;7.53;2.70;;;4.10;99.90;;;4.11;100.00;100342.41;4990238;28;20267;-79
2022/11/25 07:41:57;;;;;;;7.70;2.67;;;4.20;99.90;;;4.13;100.00;100345.97;4999649;28;20271;-79
2022/11/25 07:44:24;;;;;;;7.15;2.53;;;4.30;99.90;;;4.16;100.00;100346.06;5006979;28;20267;-79
2022/11/25 07:46:51;;;;;;;9.40;3.28;;;4.30;99.90;;;4.18;100.00;100357.47;5005834;28;20259;-79
2022/11/25 07:49:24;;;;;;;7.72;2.60;;;4.30;99.90;;;4.24;100.00;100367.28;5001616;28;20250;-79
2022/11/25 07:51:54;;;;;;;0.80;0.77;;;4.30;99.90;;;4.31;100.00;100369.25;5005423;28;20291;-80
2022/11/25 07:54:23;;;;;;;5.00;2.20;;;4.40;99.90;;;4.31;100.00;100380.59;4979542;28;20236;-79
2022/11/25 07:56:50;;;;;;;6.60;2.40;;;4.50;99.90;;;4.38;100.00;100381.69;5005114;28;20684;-79
2022/11/25 07:59:20;;;;;;;7.72;2.50;;;4.50;99.90;;;4.41;100.00;100384.41;5008835;28;20259;-79
2022/11/25 08:01:53;;;;;;;6.40;2.33;;;4.50;99.90;;;4.41;100.00;100397.50;5001340;28;20311;-79
2022/11/25 08:04:21;;;;;;;6.90;2.60;;;4.50;99.90;;;4.44;100.00;100411.59;4993652;28;20610;-79
2022/11/25 08:06:50;;;;;;;7.13;2.70;;;4.60;99.90;;;4.44;100.00;100410.72;5001187;28;20320;-79
2022/11/25 08:09:22;;;;;;;6.40;2.42;;;4.60;99.90;;;4.48;100.00;100412.59;5002665;28;20292;-79
2022/11/25 08:11:49;;;;;;;7.68;2.80;;;4.60;99.90;;;4.52;100.00;100419.69;5004265;28;20302;-79
2022/11/25 08:14:17;;;;;;;8.25;3.10;;;4.60;99.90;;;4.55;100.00;100421.53;4984579;28;20613;-79
2022/11/25 08:16:44;;;;;;;5.50;2.17;;;4.70;99.90;;;4.59;100.00;100433.88;5003774;28;20252;-79
2022/11/25 08:19:15;;;;;;;6.05;2.25;;;4.70;99.90;;;4.57;100.00;100415.50;5000986;28;20319;-79
2022/11/25 08:21:42;;;;;;;6.03;2.30;;;4.80;99.90;;;4.56;100.00;100418.06;4978952;28;20238;-78
2022/11/25 08:24:19;;;;;;;7.45;2.85;;;4.70;99.90;;;4.65;100.00;100427.13;4989427;28;20236;-78
2022/11/25 08:26:47;;;;;;;7.05;2.55;;;4.70;99.90;;;4.69;100.00;100439.47;4997078;28;20322;-79
2022/11/25 08:29:17;;;;;;;7.25;2.63;;;4.80;99.90;;;4.67;100.00;100443.78;5006117;28;20259;-79
2022/11/25 08:31:45;;;;;;;6.30;2.45;;;4.80;99.90;;;4.69;100.00;100441.22;4992106;28;20228;-79
2022/11/25 08:34:19;;;;;;;6.40;2.40;;;4.80;99.90;;;4.70;100.00;100443.88;4984401;28;20259;-80
2022/11/25 08:36:46;;;;;;;7.03;2.60;;;4.80;99.90;;;4.72;100.00;100452.66;4994056;28;20291;-79
2022/11/25 08:39:16;;;;;;;5.47;2.45;;;4.90;99.90;;;4.76;100.00;100448.41;4993277;28;20290;-79
2022/11/25 08:42:05;;;;;;;6.55;2.45;;;4.90;99.90;;;4.84;100.00;100449.56;4999531;28;20242;-79
2022/11/25 08:44:32;;;;;;;5.70;2.22;;;4.90;99.90;;;4.87;100.00;100460.13;4996667;28;20314;-79
2022/11/25 08:46:59;;;;;;;5.63;2.10;;;5.00;99.90;;;4.86;100.00;100458.34;5012848;28;20263;-79
2022/11/25 08:49:29;;;;;;;1.52;1.30;;;5.00;99.90;;;4.88;100.00;100461.91;5012059;28;20250;-79
2022/11/25 08:52:00;;;;;;;0.73;0.73;;;5.00;99.90;;;4.90;100.00;100455.00;5012225;28;20602;-79
2022/11/25 08:54:27;;;;;;;7.72;2.88;;;5.00;99.90;;;4.92;100.00;100458.56;5012090;28;20242;-79
2022/11/25 08:56:54;;;;;;;7.05;2.53;;;5.00;99.90;;;4.99;100.00;100464.88;5010848;28;20240;-79
2022/11/25 08:59:21;;;;;;;6.43;2.40;;;5.10;99.90;;;5.04;100.00;100471.16;4993782;28;20263;-79
2022/11/25 09:01:49;;;;;;;7.35;2.55;;;5.10;99.90;;;5.11;100.00;100481.00;4994314;28;20227;-79
2022/11/25 09:04:16;;;;;;;6.10;2.28;;;5.20;99.90;;;5.21;100.00;100485.72;5011996;28;20227;-79
2022/11/25 09:06:44;;;;;;;6.60;2.38;;;5.30;99.90;;;5.28;100.00;100498.19;5012010;28;20318;-79
2022/11/25 09:09:11;;;;;;;6.53;2.40;;;5.50;99.90;;;5.35;100.00;100494.00;5011382;28;20612;-79
2022/11/25 09:11:38;;;;;;;7.32;2.55;;;5.40;99.90;;;5.49;100.00;100508.44;5011443;28;20223;-79
2022/11/25 09:14:05;;;;;;;7.05;2.60;;;5.60;99.90;;;5.61;100.00;100511.44;5003485;28;20239;-79
2022/11/25 09:16:32;;;;;;;5.97;2.30;;;5.70;99.90;;;5.68;100.00;100517.75;5010997;28;20234;-79
2022/11/25 09:19:00;;;;;;;6.63;2.50;;;5.70;99.90;;;5.68;100.00;100517.75;5010403;28;20301;-79
2022/11/25 09:21:27;;;;;;;8.15;2.78;;;5.80;99.90;;;5.81;100.00;100527.75;5010799;28;20228;-80
2022/11/25 09:23:54;;;;;;;6.15;2.35;;;5.80;99.90;;;5.90;100.00;100527.19;5011079;28;20232;-79
2022/11/25 09:26:34;;;;;;;8.10;2.90;;;5.90;99.90;;;5.89;100.00;100538.47;5009611;28;20228;-79
2022/11/25 09:29:02;;;;;;;5.43;2.15;;;6.00;99.90;;;5.96;100.00;100541.38;5005656;28;20266;-79
2022/11/25 09:31:30;;;;;;;8.25;3.00;;;6.00;99.90;;;6.01;100.00;100547.63;4993732;28;20327;-79
2022/11/25 09:33:57;;;;;;;8.02;2.75;;;6.10;99.90;;;6.07;100.00;100554.81;5010726;28;20282;-79
2022/11/25 09:36:24;;;;;;;7.32;2.58;;;6.10;99.90;;;6.04;100.00;100555.59;5010748;28;20231;-79
2022/11/25 09:38:51;;;;;;;9.30;3.10;;;6.10;99.90;;;6.10;100.00;100568.91;4992247;28;20307;-79
2022/11/25 09:48:24;;;;;;;8.13;2.90;;;6.20;99.90;;;6.24;100.00;100571.94;4991415;28;20248;-79
2022/11/25 09:51:17;;;;;;;7.45;2.78;;;6.30;99.90;;;6.27;100.00;100579.91;4991471;28;20228;-79
2022/11/25 09:53:58;;;;;;;6.45;2.47;;;6.30;99.90;;;6.29;100.00;100577.31;4974385;28;20665;-79
2022/11/25 09:56:40;;;;;;;6.63;2.47;;;6.40;99.90;;;6.26;100.00;100577.22;4977667;28;20311;-79
2022/11/25 09:59:23;;;;;;;7.45;2.65;;;6.30;99.90;;;6.34;100.00;100575.72;4973963;28;20232;-79
2022/11/25 10:02:02;;;;;;;6.90;2.45;;;6.40;99.90;;;6.37;100.00;100584.56;4974338;28;20254;-79
2022/11/25 10:05:08;;;;;;;5.97;2.33;;;6.50;99.90;;;6.45;100.00;100586.50;4975028;28;20239;-79
2022/11/25 10:07:42;;;;;;;6.80;2.60;;;6.50;99.90;;;6.58;100.00;100596.56;4980625;28;20295;-79
2022/11/25 10:10:30;;;;;;;6.22;2.30;;;6.60;99.90;;;6.66;100.00;100605.53;4991731;28;20236;-79
2022/11/25 10:12:58;;;;;;;5.32;2.10;;;6.70;99.90;;;6.69;100.00;100603.00;4997942;28;20235;-79
2022/11/25 10:15:39;;;;;;;6.28;2.40;;;6.70;99.90;;;6.64;100.00;100600.22;4992573;28;20231;-79
2022/11/25 10:18:28;;;;;;;7.05;2.80;;;6.70;99.90;;;6.67;100.00;100602.06;4992257;28;20258;-79
2022/11/25 10:20:55;;;;;;;7.18;2.72;;;6.70;99.90;;;6.72;100.00;100609.22;5002696;28;20231;-79
2022/11/25 10:23:35;;;;;;;6.40;2.30;;;6.80;99.90;;;6.73;100.00;100608.38;5004050;28;20306;-79
2022/11/25 10:26:13;;;;;;;1.83;1.48;;;6.80;99.90;;;6.79;100.00;100609.38;4993271;28;20254;-79
2022/11/25 10:29:08;;;;;;;9.48;3.55;;;6.90;99.90;;;6.80;100.00;100614.69;5002868;28;20319;-79
2022/11/25 10:31:37;;;;;;;7.00;2.53;;;6.90;99.90;;;6.89;100.00;100620.19;4981839;28;20235;-79
2022/11/25 10:34:35;;;;;;;15.25;5.38;;;6.90;99.90;;;6.96;100.00;100619.50;4978936;28;20228;-81
2022/11/25 10:37:12;;;;;;;6.90;2.40;;;7.00;99.90;;;7.00;100.00;100604.69;4991395;28;20228;-78
2022/11/25 10:39:39;;;;;;;8.73;3.15;;;7.00;99.90;;;7.07;100.00;100615.41;4994207;28;20327;-80
2022/11/25 10:42:24;;;;;;;6.35;2.28;;;7.10;99.90;;;7.16;100.00;100624.38;4999743;28;20305;-80
2022/11/25 10:44:53;;;;;;;8.25;2.95;;;7.20;99.90;;;7.18;100.00;100625.31;4982546;28;20224;-78
2022/11/25 10:47:34;;;;;;;6.95;2.42;;;7.20;99.90;;;7.29;100.00;100640.50;5000646;28;20232;-82